Time;durP1;ratioP1;P1;durP2;ratioP2;P2;SDS_P1;SDS_P2;PMS_P1;PMS_P2;Temp;Humidity;BMP_temperature;BMP_pressure;BME280_temperature;BME280_humidity;BME280_pressure;Samples;Min_cycle;Max_cycle;Signal;HPM_P1;HPM_P2
2022/12/03 00:01:02;;;;;;;;;;;;;;;1.54;100.00;96472.34;5096669;28;20024;-78
2022/12/03 00:03:29;;;;;;;;;;;;;;;1.55;100.00;96478.31;5094326;28;19992;-78
2022/12/03 00:05:55;;;;;;;;;;;;;;;1.57;100.00;96478.94;5096532;28;19947;-78
2022/12/03 00:08:21;;;;;;;;;;;;;;;1.59;100.00;96477.03;5095558;28;19985;-79
2022/12/03 00:10:46;;;;;;;;;;;;;;;1.59;100.00;96475.25;5093296;28;19952;-79
2022/12/03 00:13:12;;;;;;;;;;;;;;;1.63;100.00;96478.31;5094384;28;19990;-78
2022/12/03 00:15:38;;;;;;;;;;;;;;;1.63;100.00;96473.94;5096633;28;19960;-78
2022/12/03 00:18:04;;;;;;;;;;;;;;;1.65;100.00;96473.00;5094898;28;19981;-79
2022/12/03 00:20:30;;;;;;;;;;;;;;;1.67;100.00;96468.47;5086418;28;20336;-78
2022/12/03 00:22:56;;;;;;;;;;;;;;;1.66;100.00;96464.25;5095037;28;20004;-78
2022/12/03 00:25:22;;;;;;;;;;;;;;;1.66;100.00;96469.44;5094307;28;19959;-78
2022/12/03 00:27:47;;;;;;;;;;;;;;;1.66;100.00;96483.19;5096208;28;20005;-78
2022/12/03 00:30:13;;;;;;;;;;;;;;;1.67;100.00;96477.03;5095212;28;19963;-79
2022/12/03 00:32:39;;;;;;;;;;;;;;;1.66;100.00;96478.00;5078043;28;19950;-79
2022/12/03 00:35:05;;;;;;;;;;;;;;;1.68;100.00;96476.06;5091043;28;19981;-79
2022/12/03 00:37:33;;;;;;;;;;;;;;;1.67;100.00;96468.47;5096026;28;19950;-78
2022/12/03 00:40:00;;;;;;;;;;;;;;;1.64;100.00;96467.03;5092630;28;19967;-78
2022/12/03 00:42:26;;;;;;;;;;;;;;;1.61;100.00;96467.31;5095582;28;19961;-78
2022/12/03 00:44:53;;;;;;;;;;;;;;;1.57;100.00;96466.03;5094444;28;20460;-78
2022/12/03 00:47:19;;;;;;;;;;;;;;;1.55;100.00;96478.31;5095902;28;19964;-78
2022/12/03 00:49:44;;;;;;;;;;;;;;;1.54;100.00;96480.09;5087610;28;20367;-79
2022/12/03 00:52:10;;;;;;;;;;;;;;;1.53;100.00;96475.06;5095863;28;20368;-78
2022/12/03 00:54:36;;;;;;;;;;;;;;;1.55;100.00;96480.91;5076659;28;20019;-78
2022/12/03 00:57:02;;;;;;;;;;;;;;;1.52;100.00;96482.03;5094670;28;20036;-78
2022/12/03 00:59:28;;;;;;;;;;;;;;;1.50;100.00;96483.16;5093340;28;19953;-78
2022/12/03 01:01:54;;;;;;;;;;;;;;;1.49;100.00;96479.78;5095859;28;20021;-79
2022/12/03 01:04:20;;;;;;;;;;;;;;;1.47;100.00;96476.53;5089626;28;20333;-78
2022/12/03 01:06:46;;;;;;;;;;;;;;;1.47;100.00;96481.72;5095417;28;19945;-78
2022/12/03 01:09:11;;;;;;;;;;;;;;;1.41;100.00;96495.25;5089833;28;19996;-78
2022/12/03 01:11:37;;;;;;;;;;;;;;;1.33;100.00;96490.09;5094283;28;20072;-78
2022/12/03 01:14:08;;;;;;;;;;;;;;;1.30;100.00;96490.38;5087166;28;20323;-78
2022/12/03 01:16:34;;;;;;;;;;;;;;;1.29;100.00;96494.75;5090990;28;19949;-78
2022/12/03 01:19:00;;;;;;;;;;;;;;;1.32;100.00;96498.78;5086712;28;19952;-78
2022/12/03 01:21:26;;;;;;;;;;;;;;;1.33;100.00;96495.25;5087658;28;19972;-78
2022/12/03 01:23:52;;;;;;;;;;;;;;;1.35;100.00;96495.91;5092130;28;19957;-78
2022/12/03 01:26:18;;;;;;;;;;;;;;;1.37;100.00;96502.53;5095018;28;19956;-78
2022/12/03 01:28:44;;;;;;;;;;;;;;;1.36;100.00;96500.88;5089428;28;19954;-78
2022/12/03 01:33:55;;;;;;;;;;;;;;;1.29;100.00;96510.25;5093797;28;20393;-78
2022/12/03 01:36:21;;;;;;;;;;;;;;;1.32;100.00;96506.53;5094947;28;19957;-79
2022/12/03 01:38:47;;;;;;;;;;;;;;;1.38;100.00;96506.69;5089946;28;19957;-78
2022/12/03 01:41:15;;;;;;;;;;;;;;;1.44;100.00;96507.06;5092591;28;19966;-78
2022/12/03 01:43:41;;;;;;;;;;;;;;;1.49;100.00;96505.63;5092743;28;19954;-79
2022/12/03 01:46:07;;;;;;;;;;;;;;;1.53;100.00;96503.50;5087903;28;19957;-79
2022/12/03 01:48:34;;;;;;;;;;;;;;;1.51;100.00;96498.50;5091950;28;19947;-79
2022/12/03 01:51:00;;;;;;;;;;;;;;;1.51;100.00;96497.69;5088112;28;19951;-79
2022/12/03 01:53:26;;;;;;;;;;;;;;;1.50;100.00;96498.66;5089102;28;20407;-79
2022/12/03 01:55:52;;;;;;;;;;;;;;;1.50;100.00;96499.47;5087826;28;20029;-79
2022/12/03 01:58:21;;;;;;;;;;;;;;;1.50;100.00;96506.41;5087289;28;20491;-79
2022/12/03 02:00:46;;;;;;;;;;;;;;;1.51;100.00;96505.44;5093673;28;20431;-79
2022/12/03 02:03:23;;;;;;;;;;;;;;;1.51;100.00;96508.03;5094580;28;19962;-78
2022/12/03 02:05:48;;;;;;;;;;;;;;;1.54;100.00;96502.56;5093043;28;19957;-79
2022/12/03 02:08:28;;;;;;;;;;;;;;;1.55;100.00;96501.56;5094359;28;20072;-79
2022/12/03 02:10:54;;;;;;;;;;;;;;;1.55;100.00;96502.38;5090087;28;19949;-78
2022/12/03 02:13:20;;;;;;;;;;;;;;;1.57;100.00;96497.03;5092469;28;19953;-78
2022/12/03 02:15:46;;;;;;;;;;;;;;;1.56;100.00;96498.84;5090490;28;20043;-78
2022/12/03 02:18:12;;;;;;;;;;;;;;;1.54;100.00;96500.75;5090026;28;19999;-78
2022/12/03 02:20:58;;;;;;;;;;;;;;;1.48;100.00;96498.00;5093069;28;20161;-78
2022/12/03 02:23:33;;;;;;;;;;;;;;;1.45;100.00;96490.56;5087357;28;19955;-78
2022/12/03 02:25:59;;;;;;;;;;;;;;;1.42;100.00;96496.88;5090418;28;19958;-78
2022/12/03 02:28:24;;;;;;;;;;;;;;;1.42;100.00;96483.94;5092180;28;19991;-78
2022/12/03 02:30:50;;;;;;;;;;;;;;;1.40;100.00;96484.09;5074626;28;19956;-78
2022/12/03 02:33:16;;;;;;;;;;;;;;;1.39;100.00;96498.00;5092608;28;20424;-78
2022/12/03 02:35:43;;;;;;;;;;;;;;;1.40;100.00;96494.44;5092922;28;20007;-79
2022/12/03 02:38:11;;;;;;;;;;;;;;;1.41;100.00;96492.69;5094012;28;19959;-78
2022/12/03 02:40:38;;;;;;;;;;;;;;;1.44;100.00;96504.47;5091809;28;20448;-79
2022/12/03 02:43:04;;;;;;;;;;;;;;;1.45;100.00;96506.91;5092583;28;19962;-78
2022/12/03 02:45:35;;;;;;;;;;;;;;;1.48;100.00;96510.94;5093633;28;19945;-78
2022/12/03 02:48:06;;;;;;;;;;;;;;;1.48;100.00;96509.16;5091394;28;19953;-78
2022/12/03 02:50:34;;;;;;;;;;;;;;;1.49;100.00;96512.53;5092281;28;19949;-78
2022/12/03 02:53:02;;;;;;;;;;;;;;;1.48;100.00;96501.41;5085967;28;19953;-78
2022/12/03 02:55:29;;;;;;;;;;;;;;;1.47;100.00;96504.97;5092392;28;19953;-78
2022/12/03 02:57:55;;;;;;;;;;;;;;;1.44;100.00;96499.31;5084498;28;20406;-78
2022/12/03 03:00:21;;;;;;;;;;;;;;;1.40;100.00;96501.38;5091220;28;19968;-78
2022/12/03 03:02:49;;;;;;;;;;;;;;;1.39;100.00;96492.84;5086962;28;20353;-78
2022/12/03 03:05:17;;;;;;;;;;;;;;;1.35;100.00;96509.63;5088787;28;19955;-78
2022/12/03 03:07:43;;;;;;;;;;;;;;;1.31;100.00;96500.56;5095885;28;19950;-78
2022/12/03 03:10:11;;;;;;;;;;;;;;;1.29;100.00;96501.69;5095331;28;19954;-79
2022/12/03 03:12:37;;;;;;;;;;;;;;;1.24;100.00;96496.19;5097329;28;19948;-78
2022/12/03 03:15:04;;;;;;;;;;;;;;;1.25;100.00;96502.97;5098086;28;19958;-78
2022/12/03 03:17:30;;;;;;;;;;;;;;;1.24;100.00;96501.34;5087671;28;19953;-78
2022/12/03 03:19:56;;;;;;;;;;;;;;;1.24;100.00;96498.75;5097548;28;19961;-78
2022/12/03 03:22:28;;;;;;;;;;;;;;;1.25;100.00;96496.03;5088739;28;19973;-78
2022/12/03 03:24:54;;;;;;;;;;;;;;;1.22;100.00;96498.94;5093555;28;19946;-79
2022/12/03 03:27:20;;;;;;;;;;;;;;;1.22;100.00;96493.78;5096695;28;20007;-78
2022/12/03 03:29:45;;;;;;;;;;;;;;;1.19;100.00;96499.25;5097500;28;19954;-78
2022/12/03 03:32:11;;;;;;;;;;;;;;;1.15;100.00;96491.00;5090459;28;20005;-78
2022/12/03 03:34:37;;;;;;;;;;;;;;;1.15;100.00;96491.00;5079236;28;19973;-79
2022/12/03 03:37:03;;;;;;;;;;;;;;;1.12;100.00;96490.50;5090188;28;19956;-78
2022/12/03 03:39:29;;;;;;;;;;;;;;;1.05;100.00;96492.09;5097351;28;19957;-78
2022/12/03 03:41:55;;;;;;;;;;;;;;;0.98;100.00;96490.13;5087081;28;20068;-78
2022/12/03 03:44:21;;;;;;;;;;;;;;;0.94;100.00;96486.25;5096082;28;19982;-78
2022/12/03 03:46:47;;;;;;;;;;;;;;;0.91;100.00;96491.72;5095838;28;20386;-78
2022/12/03 03:49:13;;;;;;;;;;;;;;;0.93;100.00;96489.00;5097067;28;19963;-78
2022/12/03 03:51:39;;;;;;;;;;;;;;;0.95;100.00;96489.66;5088681;28;19961;-78
2022/12/03 03:54:06;;;;;;;;;;;;;;;0.96;100.00;96486.09;5094093;28;19955;-78
2022/12/03 03:56:32;;;;;;;;;;;;;;;0.98;100.00;96486.75;5096859;28;19948;-78
2022/12/03 03:58:58;;;;;;;;;;;;;;;0.97;100.00;96483.38;5092870;28;19977;-79
2022/12/03 04:01:24;;;;;;;;;;;;;;;0.98;100.00;96481.59;5084963;28;19968;-79
2022/12/03 04:03:52;;;;;;;;;;;;;;;0.98;100.00;96486.75;5094391;28;19953;-78
2022/12/03 04:06:18;;;;;;;;;;;;;;;0.96;100.00;96486.09;5092727;28;19947;-79
2022/12/03 04:08:44;;;;;;;;;;;;;;;0.97;100.00;96485.16;5095509;28;19957;-79
2022/12/03 04:13:54;;;;;;;;;;;;;;;0.96;100.00;96488.69;5081468;28;19946;-78
2022/12/03 04:16:20;;;;;;;;;;;;;;;0.96;100.00;96481.72;5093249;28;19956;-79
2022/12/03 04:18:46;;;;;;;;;;;;;;;0.98;100.00;96482.38;5094095;28;20389;-79
2022/12/03 04:23:58;;;;;;;;;;;;;;;1.01;100.00;96484.66;5086779;28;20410;-79
2022/12/03 04:29:09;;;;;;;;;;;;;;;1.01;100.00;96473.53;5088395;28;19958;-78
2022/12/03 04:37:04;;;;;;;;;;;;;;;1.04;100.00;96462.88;5082077;28;19952;-78
2022/12/03 04:39:30;;;;;;;;;;;;;;;1.05;100.00;96468.84;5095283;28;20384;-79
2022/12/03 04:41:56;;;;;;;;;;;;;;;1.05;100.00;96468.84;5077902;28;19958;-78
2022/12/03 04:44:37;;;;;;;;;;;;;;;1.05;100.00;96467.09;5083692;28;19958;-78
2022/12/03 04:47:10;;;;;;;;;;;;;;;1.07;100.00;96472.09;5095778;28;19960;-79
2022/12/03 04:49:37;;;;;;;;;;;;;;;1.07;100.00;96474.66;5094913;28;20396;-79
2022/12/03 04:52:03;;;;;;;;;;;;;;;1.08;100.00;96468.56;5094499;28;20056;-79
2022/12/03 04:54:29;;;;;;;;;;;;;;;1.07;100.00;96477.25;5093467;28;19952;-79
2022/12/03 04:56:55;;;;;;;;;;;;;;;1.08;100.00;96477.09;5081579;28;19965;-78
2022/12/03 04:59:21;;;;;;;;;;;;;;;1.11;100.00;96466.44;5092746;28;20480;-79
2022/12/03 05:01:47;;;;;;;;;;;;;;;1.14;100.00;96466.13;5094212;28;19967;-79
2022/12/03 05:04:13;;;;;;;;;;;;;;;1.14;100.00;96455.00;5084948;28;20464;-79
2022/12/03 05:06:40;;;;;;;;;;;;;;;1.11;100.00;96452.72;5094710;28;19958;-78
2022/12/03 05:09:06;;;;;;;;;;;;;;;1.10;100.00;96454.50;5092908;28;19957;-79
2022/12/03 05:11:32;;;;;;;;;;;;;;;1.09;100.00;96442.56;5094677;28;20303;-78
2022/12/03 05:13:58;;;;;;;;;;;;;;;1.09;100.00;96441.75;5083890;28;19989;-79
2022/12/03 05:16:24;;;;;;;;;;;;;;;1.06;100.00;96449.81;5094028;28;20399;-78
2022/12/03 05:18:50;;;;;;;;;;;;;;;1.01;100.00;96458.03;5075971;28;20007;-79
2022/12/03 05:21:15;;;;;;;;;;;;;;;0.95;100.00;96463.84;5093919;28;19967;-79
2022/12/03 05:23:42;;;;;;;;;;;;;;;0.95;100.00;96464.63;5089301;28;20392;-79
2022/12/03 05:26:09;;;;;;;;;;;;;;;0.93;100.00;96461.41;5095222;28;19963;-79
2022/12/03 05:28:34;;;;;;;;;;;;;;;0.96;100.00;96462.84;5092660;28;19952;-79
2022/12/03 05:31:00;;;;;;;;;;;;;;;0.97;100.00;96469.66;5124631;27;20010;-79
2022/12/03 05:33:26;;;;;;;;;;;;;;;1.01;100.00;96461.44;5091277;28;19952;-79
2022/12/03 05:35:52;;;;;;;;;;;;;;;1.05;100.00;96455.94;5089229;28;19969;-79
2022/12/03 05:38:18;;;;;;;;;;;;;;;1.04;100.00;96462.09;5091938;28;19953;-79
2022/12/03 05:40:44;;;;;;;;;;;;;;;1.04;100.00;96459.50;5090678;28;19951;-79
2022/12/03 05:43:10;;;;;;;;;;;;;;;1.04;100.00;96455.13;5092585;28;20006;-79
2022/12/03 05:45:37;;;;;;;;;;;;;;;1.06;100.00;96455.78;5090714;28;19987;-79
2022/12/03 05:48:04;;;;;;;;;;;;;;;1.07;100.00;96454.84;5086765;28;20413;-78
2022/12/03 05:50:30;;;;;;;;;;;;;;;1.10;100.00;96458.88;5091434;28;19953;-79
2022/12/03 05:52:57;;;;;;;;;;;;;;;1.11;100.00;96453.53;5086839;28;20419;-79
2022/12/03 05:55:23;;;;;;;;;;;;;;;1.12;100.00;96455.16;5093686;28;20402;-79
2022/12/03 05:57:49;;;;;;;;;;;;;;;1.15;100.00;96451.44;5094752;28;19960;-79
2022/12/03 06:00:17;;;;;;;;;;;;;;;1.21;100.00;96459.34;5093630;28;19945;-79
2022/12/03 06:02:43;;;;;;;;;;;;;;;1.26;100.00;96458.06;5092533;28;19968;-79
2022/12/03 06:05:09;;;;;;;;;;;;;;;1.31;100.00;96455.84;5095082;28;20325;-79
2022/12/03 06:07:35;;;;;;;;;;;;;;;1.37;100.00;96460.38;5093917;28;20006;-79
2022/12/03 06:10:02;;;;;;;;;;;;;;;1.40;100.00;96460.84;5093229;28;19952;-79
2022/12/03 06:12:28;;;;;;;;;;;;;;;1.47;100.00;96467.97;5082706;28;19958;-79
2022/12/03 06:14:54;;;;;;;;;;;;;;;1.50;100.00;96463.28;5093139;28;19952;-79
2022/12/03 06:17:20;;;;;;;;;;;;;;;1.53;100.00;96451.81;5090133;28;20089;-79
2022/12/03 06:19:46;;;;;;;;;;;;;;;1.52;100.00;96453.59;5094509;28;19982;-79
2022/12/03 06:22:12;;;;;;;;;;;;;;;1.52;100.00;96466.53;5091723;28;20460;-79
2022/12/03 06:24:38;;;;;;;;;;;;;;;1.55;100.00;96473.13;5092866;28;20001;-79
2022/12/03 06:27:04;;;;;;;;;;;;;;;1.56;100.00;96469.59;5093057;28;19993;-79
2022/12/03 06:29:30;;;;;;;;;;;;;;;1.59;100.00;96471.84;5093910;28;19954;-79
2022/12/03 06:31:56;;;;;;;;;;;;;;;1.60;100.00;96469.13;5092588;28;20408;-79
2022/12/03 06:34:22;;;;;;;;;;;;;;;1.58;100.00;96467.66;5094084;28;19987;-79
2022/12/03 06:36:49;;;;;;;;;;;;;;;1.56;100.00;96475.56;5092834;28;20334;-79
2022/12/03 06:39:15;;;;;;;;;;;;;;;1.56;100.00;96477.34;5094017;28;19950;-79
2022/12/03 06:41:41;;;;;;;;;;;;;;;1.58;100.00;96475.41;5092123;28;19978;-77
2022/12/03 06:44:07;;;;;;;;;;;;;;;1.60;100.00;96476.88;5093761;28;20042;-78
2022/12/03 06:46:33;;;;;;;;;;;;;;;1.61;100.00;96475.88;5091756;28;20024;-78
2022/12/03 06:48:59;;;;;;;;;;;;;;;1.58;100.00;96467.66;5094324;28;19957;-78
2022/12/03 06:51:25;;;;;;;;;;;;;;;1.58;100.00;96467.66;5091514;28;19952;-78
2022/12/03 06:53:50;;;;;;;;;;;;;;;1.57;100.00;96455.69;5093813;28;19949;-78
2022/12/03 06:56:16;;;;;;;;;;;;;;;1.58;100.00;96458.13;5090758;28;19962;-78
2022/12/03 06:58:42;;;;;;;;;;;;;;;1.59;100.00;96451.16;5092519;28;19954;-79
2022/12/03 07:01:08;;;;;;;;;;;;;;;1.57;100.00;96448.75;5086887;28;20379;-80
2022/12/03 07:03:34;;;;;;;;;;;;;;;1.58;100.00;96460.72;5075538;28;19981;-79
2022/12/03 07:06:00;;;;;;;;;;;;;;;1.56;100.00;96467.00;5092506;28;19958;-79
2022/12/03 07:08:26;;;;;;;;;;;;;;;1.48;100.00;96467.81;5093669;28;19957;-79
2022/12/03 07:10:52;;;;;;;;;;;;;;;1.45;100.00;96468.13;5088206;28;19952;-79
2022/12/03 07:13:18;;;;;;;;;;;;;;;1.45;100.00;96473.31;5085359;28;20405;-79
2022/12/03 07:15:44;;;;;;;;;;;;;;;1.45;100.00;96468.13;5092291;28;19954;-80
2022/12/03 07:18:10;;;;;;;;;;;;;;;1.49;100.00;96484.94;5093566;28;19954;-79
2022/12/03 07:20:36;;;;;;;;;;;;;;;1.50;100.00;96478.00;5085383;28;20396;-79
2022/12/03 07:23:02;;;;;;;;;;;;;;;1.53;100.00;96477.66;5089765;28;19965;-79
2022/12/03 07:25:28;;;;;;;;;;;;;;;1.55;100.00;96483.47;5092324;28;19980;-79
2022/12/03 07:27:54;;;;;;;;;;;;;;;1.56;100.00;96490.28;5090923;28;19956;-79
2022/12/03 07:30:20;;;;;;;;;;;;;;;1.59;100.00;96483.00;5092589;28;19964;-80
2022/12/03 07:32:46;;;;;;;;;;;;;;;1.61;100.00;96473.28;5092220;28;19958;-79
2022/12/03 07:35:12;;;;;;;;;;;;;;;1.62;100.00;96477.50;5091182;28;20040;-79
2022/12/03 07:37:38;;;;;;;;;;;;;;;1.65;100.00;96473.78;5073419;28;20733;-79
2022/12/03 07:40:04;;;;;;;;;;;;;;;1.69;100.00;96469.91;5087900;28;19952;-79
2022/12/03 07:42:30;;;;;;;;;;;;;;;1.73;100.00;96480.75;5091073;28;19966;-80
2022/12/03 07:44:56;;;;;;;;;;;;;;;1.74;100.00;96472.84;5092164;28;19998;-79
2022/12/03 07:47:22;;;;;;;;;;;;;;;1.77;100.00;96472.50;5079080;28;19957;-79
2022/12/03 07:49:48;;;;;;;;;;;;;;;1.77;100.00;96477.69;5085660;28;19965;-80
2022/12/03 07:52:14;;;;;;;;;;;;;;;1.79;100.00;96474.94;5089714;28;20041;-79
2022/12/03 07:54:40;;;;;;;;;;;;;;;1.85;100.00;96478.63;5089814;28;20470;-78
2022/12/03 07:57:06;;;;;;;;;;;;;;;2.52;100.00;96476.63;5096975;28;20365;-80
2022/12/03 07:59:32;;;;;;;;;;;;;;;2.75;100.00;96473.28;5090468;28;19962;-81
2022/12/03 08:01:57;;;;;;;;;;;;;;;2.67;100.00;96466.38;5096744;28;20417;-81
2022/12/03 08:04:23;;;;;;;;;;;;;;;2.58;100.00;96465.59;5095700;28;19959;-82
2022/12/03 08:06:49;;;;;;;;;;;;;;;2.43;100.00;96456.88;5095579;28;19958;-81
2022/12/03 08:09:15;;;;;;;;;;;;;;;2.27;100.00;96455.16;5088335;28;20367;-81
2022/12/03 08:11:41;;;;;;;;;;;;;;;2.13;100.00;96459.22;5096987;28;19959;-81
2022/12/03 08:14:12;;;;;;;;;;;;;;;1.99;100.00;96458.09;5094497;28;19955;-81
2022/12/03 08:16:39;;;;;;;;;;;;;;;1.89;100.00;96461.81;5096702;28;20422;-81
2022/12/03 08:19:08;;;;;;;;;;;;;;;1.80;100.00;96454.06;5096644;28;20343;-81
2022/12/03 08:21:35;;;;;;;;;;;;;;;1.79;100.00;96449.88;5094380;28;19962;-81
2022/12/03 08:24:16;;;;;;;;;;;;;;;1.78;100.00;96439.69;5094386;28;19964;-81
2022/12/03 08:26:45;;;;;;;;;;;;;;;1.80;100.00;96442.94;5109366;28;19951;-80
2022/12/03 08:29:12;;;;;;;;;;;;;;;1.88;100.00;96449.88;5094147;28;19959;-81
2022/12/03 08:31:38;;;;;;;;;;;;;;;2.10;100.00;96443.22;5083294;28;20329;-81
2022/12/03 08:34:30;;;;;;;;;;;;;;;2.42;100.00;96447.53;5094506;28;19983;-80
2022/12/03 08:37:00;;;;;;;;;;;;;;;2.74;100.00;96450.97;5090203;28;19952;-81
2022/12/03 08:39:32;;;;;;;;;;;;;;;2.96;100.00;96447.63;5096191;28;20508;-81
2022/12/03 08:44:54;;;;;;;;;;;;;;;3.36;100.00;96447.53;5093726;28;19954;-81
2022/12/03 08:47:21;;;;;;;;;;;;;;;3.53;100.00;96446.47;5084891;28;19953;-81
2022/12/03 08:49:52;;;;;;;;;;;;;;;3.67;100.00;96447.47;5094725;28;19952;-81
2022/12/03 08:52:19;;;;;;;;;;;;;;;3.77;100.00;96444.66;5086633;28;19948;-81
2022/12/03 08:54:54;;;;;;;;;;;;;;;3.72;100.00;96455.56;5092619;28;19957;-80
2022/12/03 08:57:20;;;;;;;;;;;;;;;3.53;100.00;96456.84;5097772;28;19961;-81
2022/12/03 08:59:46;;;;;;;;;;;;;;;3.36;100.00;96458.75;5088665;28;20321;-81
2022/12/03 09:02:17;;;;;;;;;;;;;;;3.20;100.00;96459.63;5095642;28;19968;-82
2022/12/03 09:04:44;;;;;;;;;;;;;;;3.04;100.00;96457.13;5091744;28;19963;-81
2022/12/03 09:07:10;;;;;;;;;;;;;;;2.91;100.00;96459.47;5093092;28;20146;-81
2022/12/03 09:09:36;;;;;;;;;;;;;;;2.79;100.00;96467.63;5090759;28;19998;-81
2022/12/03 09:12:02;;;;;;;;;;;;;;;2.70;100.00;96467.81;5085962;28;19956;-81
2022/12/03 09:14:28;;;;;;;;;;;;;;;2.60;100.00;96470.59;5073848;28;19948;-81
2022/12/03 09:16:54;;;;;;;;;;;;;;;2.56;100.00;96471.88;5089288;28;20320;-81
2022/12/03 09:19:21;;;;;;;;;;;;;;;2.46;100.00;96466.94;5095247;28;19948;-81
2022/12/03 09:21:47;;;;;;;;;;;;;;;2.40;100.00;96465.00;5095099;28;19963;-81
2022/12/03 09:24:13;;;;;;;;;;;;;;;2.36;100.00;96456.75;5095316;28;20483;-81
2022/12/03 09:26:39;;;;;;;;;;;;;;;2.32;100.00;96444.31;5093950;28;19991;-81
2022/12/03 09:29:05;;;;;;;;;;;;;;;2.33;100.00;96441.56;5096199;28;19961;-81
2022/12/03 09:31:33;;;;;;;;;;;;;;;2.36;100.00;96438.63;5093960;28;19968;-81
2022/12/03 09:34:00;;;;;;;;;;;;;;;2.38;100.00;96438.47;5091292;28;20405;-81
2022/12/03 09:36:26;;;;;;;;;;;;;;;2.39;100.00;96446.09;5091699;28;19949;-81
2022/12/03 09:38:52;;;;;;;;;;;;;;;2.42;100.00;96448.31;5093808;28;19955;-81
2022/12/03 09:41:18;;;;;;;;;;;;;;;2.46;100.00;96445.38;5093949;28;19957;-81
2022/12/03 09:43:43;;;;;;;;;;;;;;;2.51;100.00;96443.91;5083895;28;19999;-81
2022/12/03 09:46:09;;;;;;;;;;;;;;;2.52;100.00;96424.84;5095229;28;19950;-82
2022/12/03 09:48:35;;;;;;;;;;;;;;;2.68;100.00;96429.13;5078705;28;20062;-81
2022/12/03 09:51:02;;;;;;;;;;;;;;;2.74;100.00;96438.03;5078659;28;19961;-81
2022/12/03 09:53:28;;;;;;;;;;;;;;;2.64;100.00;96441.59;5094462;28;19948;-82
2022/12/03 09:55:57;;;;;;;;;;;;;;;2.48;100.00;96443.44;5109680;28;19956;-81
2022/12/03 09:58:25;;;;;;;;;;;;;;;2.35;100.00;96444.78;5089981;28;20421;-81
2022/12/03 10:00:51;;;;;;;;;;;;;;;2.29;100.00;96437.69;5093771;28;20222;-81
2022/12/03 10:03:18;;;;;;;;;;;;;;;2.27;100.00;96433.63;5091372;28;19974;-81
2022/12/03 10:05:45;;;;;;;;;;;;;;;2.22;100.00;96434.13;5092088;28;19947;-80
2022/12/03 10:08:12;;;;;;;;;;;;;;;2.19;100.00;96439.66;5086174;28;19958;-79
2022/12/03 10:10:40;;;;;;;;;;;;;;;2.13;100.00;96437.72;5084040;28;19948;-81
2022/12/03 10:13:09;;;;;;;;;;;;;;;2.04;100.00;96442.09;5094433;28;20321;-81
2022/12/03 10:15:35;;;;;;;;;;;;;;;1.97;100.00;96441.13;5106116;28;19958;-81
2022/12/03 10:18:18;;;;;;;;;;;;;;;1.96;100.00;96442.13;5092877;28;19962;-80
2022/12/03 10:20:44;;;;;;;;;;;;;;;1.98;100.00;96432.41;5088849;28;19958;-80
2022/12/03 10:23:17;;;;;;;;;;;;;;;2.01;100.00;96435.47;5092953;28;19970;-81
2022/12/03 10:25:57;;;;;;;;;;;;;;;1.99;100.00;96424.47;5093337;28;19951;-81
2022/12/03 10:28:28;;;;;;;;;;;;;;;2.00;100.00;96426.09;5087297;28;19949;-81
2022/12/03 10:30:54;;;;;;;;;;;;;;;1.96;100.00;96421.44;5093963;28;19951;-81
2022/12/03 10:33:20;;;;;;;;;;;;;;;1.94;100.00;96421.59;5089816;28;19957;-82
2022/12/03 10:35:46;;;;;;;;;;;;;;;1.90;100.00;96422.09;5084278;28;19978;-81
2022/12/03 10:38:15;;;;;;;;;;;;;;;1.87;100.00;96418.06;5092657;28;20331;-81
2022/12/03 10:40:41;;;;;;;;;;;;;;;1.90;100.00;96414.31;5094212;28;19957;-82
2022/12/03 10:43:23;;;;;;;;;;;;;;;1.95;100.00;96412.03;5087462;28;19966;-81
2022/12/03 10:45:55;;;;;;;;;;;;;;;1.97;100.00;96402.34;5086098;28;19970;-81
2022/12/03 10:48:26;;;;;;;;;;;;;;;1.92;100.00;96402.84;5091591;28;19950;-81
2022/12/03 10:50:53;;;;;;;;;;;;;;;1.93;100.00;96399.28;5088433;28;19972;-81
2022/12/03 10:53:21;;;;;;;;;;;;;;;1.97;100.00;96402.34;5085253;28;19944;-80
2022/12/03 10:55:50;;;;;;;;;;;;;;;2.30;100.00;96389.31;5084748;28;20302;-80
2022/12/03 10:58:23;;;;;;;;;;;;;;;2.42;100.00;96390.59;5093477;28;19954;-80
2022/12/03 11:00:50;;;;;;;;;;;;;;;2.38;100.00;96394.47;5094256;28;19956;-80
2022/12/03 11:03:21;;;;;;;;;;;;;;;2.34;100.00;96388.03;5093528;28;19972;-80
2022/12/03 11:05:47;;;;;;;;;;;;;;;2.30;100.00;96378.97;5094040;28;19962;-80
2022/12/03 11:08:17;;;;;;;;;;;;;;;2.23;100.00;96376.25;5092391;28;19957;-80
2022/12/03 11:10:43;;;;;;;;;;;;;;;2.12;100.00;96377.44;5093419;28;19955;-80
2022/12/03 11:13:24;;;;;;;;;;;;;;;2.01;100.00;96380.34;5092389;28;19950;-80
2022/12/03 11:15:51;;;;;;;;;;;;;;;1.92;100.00;96376.97;5092737;28;19949;-80
2022/12/03 11:18:35;;;;;;;;;;;;;;;1.86;100.00;96376.84;5092314;28;19951;-80
2022/12/03 11:21:01;;;;;;;;;;;;;;;1.82;100.00;96384.91;5092474;28;19947;-80
2022/12/03 11:23:42;;;;;;;;;;;;;;;1.77;100.00;96378.63;5092128;28;19967;-80
2022/12/03 11:26:16;;;;;;;;;;;;;;;1.74;100.00;96372.03;5093556;28;19951;-80
2022/12/03 11:28:44;;;;;;;;;;;;;;;1.79;100.00;96374.91;5096607;28;19954;-80
2022/12/03 11:31:29;;;;;;;;;;;;;;;1.83;100.00;96378.78;5097567;28;20405;-80
2022/12/03 11:34:30;;;;;;;;;;;;;;;1.89;100.00;96376.50;5097546;28;19958;-80
2022/12/03 11:37:09;;;;;;;;;;;;;;;1.91;100.00;96374.53;5074712;28;19974;-80
2022/12/03 11:39:46;;;;;;;;;;;;;;;1.91;100.00;96365.03;5090816;28;19965;-80
2022/12/03 11:42:24;;;;;;;;;;;;;;;1.89;100.00;96371.31;5097128;28;19965;-80
2022/12/03 11:45:02;;;;;;;;;;;;;;;1.81;100.00;96365.22;5097127;28;20464;-80
2022/12/03 11:47:36;;;;;;;;;;;;;;;1.75;100.00;96355.53;5097601;28;19959;-80
2022/12/03 11:50:17;;;;;;;;;;;;;;;1.71;100.00;96349.06;5096923;28;19952;-80
2022/12/03 11:52:45;;;;;;;;;;;;;;;1.72;100.00;96349.88;5097085;28;19950;-80
2022/12/03 11:55:31;;;;;;;;;;;;;;;1.72;100.00;96352.44;5097498;28;19950;-81
2022/12/03 11:58:18;;;;;;;;;;;;;;;1.71;100.00;96337.94;5096518;28;20408;-80
2022/12/03 12:00:48;;;;;;;;;;;;;;;1.70;100.00;96334.53;5089190;28;20397;-80
2022/12/03 12:03:21;;;;;;;;;;;;;;;1.73;100.00;96338.56;5096877;28;20321;-80
2022/12/03 12:05:58;;;;;;;;;;;;;;;1.74;100.00;96338.41;5096636;28;20408;-80
2022/12/03 12:08:24;;;;;;;;;;;;;;;1.74;100.00;96338.41;5096759;28;19942;-80
2022/12/03 12:10:50;;;;;;;;;;;;;;;1.75;100.00;96334.84;5096853;28;20401;-80
2022/12/03 12:13:31;;;;;;;;;;;;;;;1.76;100.00;96326.09;5096490;28;20464;-80
2022/12/03 12:15:57;;;;;;;;;;;;;;;1.75;100.00;96324.50;5095401;28;20408;-80
2022/12/03 12:18:37;;;;;;;;;;;;;;;1.74;100.00;96320.31;5096486;28;19951;-80
2022/12/03 12:21:21;;;;;;;;;;;;;;;1.73;100.00;96318.69;5096452;28;20327;-80
2022/12/03 12:23:47;;;;;;;;;;;;;;;1.73;100.00;96320.47;5095305;28;20332;-80
2022/12/03 12:26:13;;;;;;;;;;;;;;;1.72;100.00;96311.09;5095339;28;19954;-80
2022/12/03 12:28:39;;;;;;;;;;;;;;;1.72;100.00;96308.50;5096359;28;19958;-81
2022/12/03 12:31:11;;;;;;;;;;;;;;;1.72;100.00;96314.50;5096338;28;20014;-80
2022/12/03 12:33:37;;;;;;;;;;;;;;;1.67;100.00;96305.63;5096595;28;19961;-80
2022/12/03 12:36:09;;;;;;;;;;;;;;;1.63;100.00;96312.88;5089455;28;19980;-80
2022/12/03 12:38:35;;;;;;;;;;;;;;;1.59;100.00;96325.31;5079547;28;19951;-81
2022/12/03 12:41:16;;;;;;;;;;;;;;;1.53;100.00;96307.09;5082023;28;20459;-80
2022/12/03 12:43:42;;;;;;;;;;;;;;;1.50;100.00;96312.59;5083258;28;20056;-81
2022/12/03 12:46:12;;;;;;;;;;;;;;;1.49;100.00;96309.22;5094813;28;19952;-81
2022/12/03 12:48:38;;;;;;;;;;;;;;;1.50;100.00;96304.84;5095068;28;19948;-81
2022/12/03 12:51:12;;;;;;;;;;;;;;;1.51;100.00;96293.53;5094657;28;20405;-80
2022/12/03 12:53:39;;;;;;;;;;;;;;;1.52;100.00;96295.94;5086818;28;19955;-80
2022/12/03 12:56:10;;;;;;;;;;;;;;;1.57;100.00;96290.28;5095771;28;19950;-80
2022/12/03 12:58:36;;;;;;;;;;;;;;;1.51;100.00;96284.03;5093400;28;19955;-80
2022/12/03 13:01:06;;;;;;;;;;;;;;;1.48;100.00;96284.31;5084789;28;19956;-80
2022/12/03 13:03:33;;;;;;;;;;;;;;;1.50;100.00;96279.00;5094341;28;19973;-80
2022/12/03 13:06:00;;;;;;;;;;;;;;;1.54;100.00;96286.25;5093092;28;19945;-80
2022/12/03 13:08:46;;;;;;;;;;;;;;;1.55;100.00;96282.69;5093538;28;19961;-81
2022/12/03 13:11:28;;;;;;;;;;;;;;;1.54;100.00;96285.47;5086912;28;19968;-80